createdAt,value
2022-11-08T00:02:20.443Z,4.68
2022-11-08T00:04:47.132Z,4.75
2022-11-08T00:07:32.063Z,5.07
2022-11-08T00:10:16.917Z,4.63
2022-11-08T00:13:01.831Z,4.85
2022-11-08T00:15:29.467Z,6.20
2022-11-08T00:17:56.454Z,5.55
2022-11-08T00:20:23.039Z,5.97
2022-11-08T00:22:49.638Z,5.43
2022-11-08T00:25:16.325Z,5.28
2022-11-08T00:27:42.979Z,5.20
2022-11-08T00:30:10.162Z,6.22
2022-11-08T00:32:36.791Z,5.20
2022-11-08T00:35:03.531Z,5.55
2022-11-08T00:37:30.170Z,6.00
2022-11-08T00:39:56.761Z,5.13
2022-11-08T00:42:23.427Z,5.90
2022-11-08T00:44:50.095Z,5.70
2022-11-08T00:47:16.737Z,5.28
2022-11-08T00:49:43.347Z,5.18
2022-11-08T00:52:09.965Z,5.57
2022-11-08T00:54:36.616Z,5.55
2022-11-08T00:57:03.329Z,5.75
2022-11-08T00:59:29.931Z,5.47
2022-11-08T01:01:56.700Z,5.60
2022-11-08T01:04:23.362Z,6.35
2022-11-08T01:06:50.023Z,5.43
2022-11-08T01:09:16.598Z,5.70
2022-11-08T01:11:46.505Z,5.18
2022-11-08T01:14:14.149Z,5.95
2022-11-08T01:16:40.825Z,6.53
2022-11-08T01:19:07.430Z,6.57
2022-11-08T01:21:34.121Z,7.78
2022-11-08T01:24:00.928Z,6.47
2022-11-08T01:26:28.637Z,6.78
2022-11-08T01:28:55.854Z,6.30
2022-11-08T01:31:24.760Z,5.78
2022-11-08T01:33:52.017Z,5.72
2022-11-08T01:36:21.572Z,5.13
2022-11-08T01:38:48.201Z,5.90
2022-11-08T01:41:15.946Z,5.32
2022-11-08T01:43:46.292Z,4.88
2022-11-08T01:46:19.746Z,5.80
2022-11-08T01:49:03.932Z,5.47
2022-11-08T01:51:32.780Z,4.93
2022-11-08T01:53:59.342Z,5.18
2022-11-08T01:56:25.955Z,5.07
2022-11-08T01:58:52.559Z,5.57
2022-11-08T02:01:19.286Z,5.03
2022-11-08T02:03:47.070Z,5.13
2022-11-08T02:06:13.694Z,5.45
2022-11-08T02:08:41.818Z,5.30
2022-11-08T02:11:09.413Z,4.97
2022-11-08T02:13:36.934Z,5.25
2022-11-08T02:16:06.427Z,5.18
2022-11-08T02:18:33.001Z,5.07
2022-11-08T02:21:12.253Z,5.63
2022-11-08T02:23:55.044Z,5.10
2022-11-08T02:26:26.353Z,4.90
2022-11-08T02:28:52.913Z,5.30
2022-11-08T02:31:20.112Z,5.35
2022-11-08T02:33:47.397Z,5.03
2022-11-08T02:36:19.830Z,5.07
2022-11-08T02:38:48.332Z,4.82
2022-11-08T02:41:14.919Z,5.25
2022-11-08T02:43:41.507Z,4.95
2022-11-08T02:46:08.135Z,5.07
2022-11-08T02:48:34.688Z,5.13
2022-11-08T02:51:01.274Z,5.40
2022-11-08T02:53:27.947Z,4.90
2022-11-08T02:55:54.513Z,4.78
2022-11-08T02:58:21.762Z,5.22
2022-11-08T03:00:48.380Z,4.97
2022-11-08T03:03:15.004Z,5.15
2022-11-08T03:05:43.396Z,5.40
2022-11-08T03:08:10.019Z,5.18
2022-11-08T03:10:36.614Z,5.40
2022-11-08T03:13:04.816Z,5.05
2022-11-08T03:15:32.573Z,5.53
2022-11-08T03:18:00.090Z,5.18
2022-11-08T03:20:32.250Z,4.70
2022-11-08T03:23:05.265Z,4.78
2022-11-08T03:25:32.044Z,4.93
2022-11-08T03:28:03.078Z,5.20
2022-11-08T03:30:29.746Z,4.68
2022-11-08T03:32:56.294Z,4.82
2022-11-08T03:35:23.411Z,5.22
2022-11-08T03:37:54.252Z,4.45
2022-11-08T03:40:20.975Z,4.95
2022-11-08T03:42:47.682Z,5.85
2022-11-08T03:45:15.201Z,5.75
2022-11-08T03:47:46.215Z,5.28
2022-11-08T03:50:13.974Z,5.55
2022-11-08T03:52:44.798Z,4.70
2022-11-08T03:55:11.893Z,4.45
2022-11-08T03:57:39.766Z,4.72
2022-11-08T04:00:08.074Z,4.70
2022-11-08T04:02:34.798Z,5.55
2022-11-08T04:05:01.547Z,4.80
2022-11-08T04:07:29.028Z,5.20
2022-11-08T04:09:55.924Z,4.95
2022-11-08T04:12:41.378Z,5.60
2022-11-08T04:15:16.005Z,5.57
2022-11-08T04:18:01.690Z,5.85
2022-11-08T04:20:47.020Z,6.78
2022-11-08T04:23:14.226Z,6.57
2022-11-08T04:25:40.977Z,5.82
2022-11-08T04:28:07.682Z,6.30
2022-11-08T04:30:34.318Z,7.15
2022-11-08T04:33:02.665Z,6.95
2022-11-08T04:35:30.087Z,5.82
2022-11-08T04:38:00.663Z,7.10
2022-11-08T04:40:28.175Z,5.97
2022-11-08T04:42:54.771Z,6.57
2022-11-08T04:45:21.367Z,6.25
2022-11-08T04:47:48.700Z,6.00
2022-11-08T04:50:15.657Z,5.80
2022-11-08T04:52:42.336Z,6.28
2022-11-08T04:55:09.516Z,5.75
2022-11-08T04:57:36.107Z,5.70
2022-11-08T05:00:02.749Z,5.82
2022-11-08T05:02:29.458Z,6.03
2022-11-08T05:04:56.194Z,5.68
2022-11-08T05:07:22.799Z,5.60
2022-11-08T05:09:49.347Z,5.07
2022-11-08T05:12:15.937Z,4.57
2022-11-08T05:14:42.506Z,4.55
2022-11-08T05:17:09.107Z,4.47
2022-11-08T05:19:54.027Z,4.32
2022-11-08T05:22:38.973Z,3.88
2022-11-08T05:25:05.984Z,4.53
2022-11-08T05:27:34.521Z,4.30
2022-11-08T05:30:01.209Z,3.97
2022-11-08T05:32:27.819Z,4.22
2022-11-08T05:34:55.216Z,4.65
2022-11-08T05:37:21.823Z,3.92
2022-11-08T05:39:48.380Z,4.88
2022-11-08T05:42:15.080Z,4.80
2022-11-08T05:44:41.628Z,4.38
2022-11-08T05:47:08.254Z,4.25
2022-11-08T05:49:34.814Z,4.22
2022-11-08T05:52:01.652Z,5.70
2022-11-08T05:54:28.209Z,5.32
2022-11-08T05:56:54.805Z,5.95
2022-11-08T05:59:21.407Z,6.38
2022-11-08T06:01:48.035Z,5.20
2022-11-08T06:04:14.634Z,5.50
2022-11-08T06:06:41.214Z,5.63
2022-11-08T06:09:07.883Z,5.70
2022-11-08T06:11:34.521Z,4.13
2022-11-08T06:14:01.085Z,4.97
2022-11-08T06:16:27.738Z,5.20
2022-11-08T06:18:54.445Z,4.40
2022-11-08T06:21:21.803Z,4.20
2022-11-08T06:23:48.643Z,4.10
2022-11-08T06:26:15.214Z,3.58
2022-11-08T06:28:41.810Z,3.80
2022-11-08T06:31:08.396Z,3.55
2022-11-08T06:33:35.040Z,3.47
2022-11-08T06:36:02.158Z,3.63
2022-11-08T06:38:28.882Z,3.92
2022-11-08T06:40:59.331Z,3.97
2022-11-08T06:43:26.397Z,4.03
2022-11-08T06:45:53.521Z,4.65
2022-11-08T06:48:20.077Z,3.90
2022-11-08T06:50:46.638Z,3.88
2022-11-08T06:53:13.760Z,4.25
2022-11-08T06:55:40.461Z,3.63
2022-11-08T06:58:07.276Z,4.40
2022-11-08T07:00:34.020Z,3.58
2022-11-08T07:03:02.375Z,3.60
2022-11-08T07:05:30.623Z,3.67
2022-11-08T07:07:58.503Z,3.40
2022-11-08T07:10:28.446Z,3.53
2022-11-08T07:13:15.462Z,3.38
2022-11-08T07:15:42.552Z,3.33
2022-11-08T07:18:12.963Z,3.58
2022-11-08T07:20:40.259Z,3.38
2022-11-08T07:23:07.381Z,3.80
2022-11-08T07:25:34.057Z,4.03
2022-11-08T07:28:04.490Z,3.85
2022-11-08T07:30:31.384Z,4.07
2022-11-08T07:32:58.427Z,4.13
2022-11-08T07:35:26.132Z,4.30
2022-11-08T07:37:52.792Z,4.55
2022-11-08T07:40:19.375Z,3.50
2022-11-08T07:43:13.582Z,4.28
2022-11-08T07:45:32.533Z,4.35
2022-11-08T07:48:10.664Z,3.80
2022-11-08T07:50:38.569Z,3.33
2022-11-08T07:53:05.208Z,3.47
2022-11-08T07:55:31.805Z,3.25
2022-11-08T07:58:02.218Z,3.40
2022-11-08T08:00:30.224Z,3.40
2022-11-08T08:03:03.801Z,3.28
2022-11-08T08:05:33.448Z,3.63
2022-11-08T08:08:02.051Z,3.65
2022-11-08T08:10:37.587Z,3.90
2022-11-08T08:13:04.835Z,3.50
2022-11-08T08:15:31.500Z,2.92
2022-11-08T08:18:00.535Z,2.97
2022-11-08T08:20:27.272Z,2.65
2022-11-08T08:22:53.950Z,3.10
2022-11-08T08:25:20.518Z,3.15
2022-11-08T08:27:51.020Z,3.50
2022-11-08T08:30:18.057Z,4.00
2022-11-08T08:32:47.921Z,3.17
2022-11-08T08:35:20.016Z,3.00
2022-11-08T08:37:46.653Z,3.05
2022-11-08T08:40:13.241Z,3.38
2022-11-08T08:42:39.856Z,3.53
2022-11-08T08:45:12.049Z,2.92
2022-11-08T08:47:41.228Z,2.92
2022-11-08T08:50:09.142Z,3.13
2022-11-08T08:52:35.775Z,2.80
2022-11-08T08:55:02.347Z,2.40
2022-11-08T08:57:28.941Z,2.58
2022-11-08T09:02:42.865Z,3.10
2022-11-08T09:05:10.439Z,2.72
2022-11-08T09:07:37.074Z,2.78
2022-11-08T09:10:05.146Z,2.63
2022-11-08T09:12:32.215Z,2.35
2022-11-08T09:14:58.976Z,2.30
2022-11-08T09:17:27.309Z,2.30
2022-11-08T09:19:57.212Z,2.28
2022-11-08T09:22:24.170Z,2.00
2022-11-08T09:24:50.784Z,1.88
2022-11-08T09:27:17.509Z,1.70
2022-11-08T09:29:44.078Z,1.88
2022-11-08T09:32:11.183Z,2.13
2022-11-08T09:34:37.750Z,2.80
2022-11-08T09:37:04.348Z,2.47
2022-11-08T09:39:30.976Z,1.92
2022-11-08T09:42:29.608Z,2.05
2022-11-08T09:45:22.887Z,2.10
2022-11-08T09:47:53.095Z,2.45
2022-11-08T09:50:30.877Z,1.95
2022-11-08T09:53:11.656Z,1.67
2022-11-08T09:55:48.077Z,1.65
2022-11-08T09:58:37.969Z,2.10
2022-11-08T10:01:04.789Z,1.98
2022-11-08T10:03:31.393Z,1.88
2022-11-08T10:06:19.623Z,2.00
2022-11-08T10:09:07.855Z,2.00
2022-11-08T10:11:37.325Z,2.03
2022-11-08T10:14:10.028Z,1.90
2022-11-08T10:16:58.627Z,2.13
2022-11-08T10:19:59.215Z,1.88
2022-11-08T10:22:38.337Z,1.63
2022-11-08T10:25:24.527Z,1.63
2022-11-08T10:28:29.216Z,2.22
2022-11-08T10:30:55.926Z,1.98
2022-11-08T10:33:43.115Z,1.75
2022-11-08T10:36:15.024Z,1.88
2022-11-08T10:39:04.676Z,1.92
2022-11-08T10:41:40.530Z,1.90
2022-11-08T10:44:19.867Z,1.73
2022-11-08T10:47:00.997Z,1.77
2022-11-08T10:49:35.166Z,1.60
2022-11-08T10:52:13.730Z,1.95
2022-11-08T10:54:53.537Z,1.70
2022-11-08T10:57:32.232Z,1.48
2022-11-08T11:00:26.050Z,1.73
2022-11-08T11:03:11.980Z,1.80
2022-11-08T11:05:44.390Z,1.75
2022-11-08T11:08:14.380Z,1.67
2022-11-08T11:10:49.106Z,1.88
2022-11-08T11:15:54.272Z,1.50
2022-11-08T11:18:47.322Z,1.60
2022-11-08T11:21:19.315Z,1.70
2022-11-08T11:23:46.946Z,1.40
2022-11-08T11:26:32.947Z,1.63
2022-11-08T11:29:02.164Z,1.52
2022-11-08T11:31:28.856Z,1.55
2022-11-08T11:33:55.524Z,1.30
2022-11-08T11:36:23.765Z,1.30
2022-11-08T11:39:07.426Z,1.23
2022-11-08T11:41:38.092Z,2.47
2022-11-08T11:44:16.863Z,2.10
2022-11-08T11:47:02.626Z,1.52
2022-11-08T11:49:30.819Z,1.48
2022-11-08T11:51:58.703Z,1.40
2022-11-08T11:54:30.467Z,1.50
2022-11-08T11:56:59.177Z,1.67
2022-11-08T11:59:44.007Z,1.50
2022-11-08T12:02:10.704Z,1.60
2022-11-08T12:05:08.481Z,1.50
2022-11-08T12:07:36.994Z,1.67
2022-11-08T12:10:25.795Z,1.70
2022-11-08T12:13:09.017Z,1.40
2022-11-08T12:15:45.400Z,1.40
2022-11-08T12:18:43.987Z,1.30
2022-11-08T12:21:15.073Z,1.52
2022-11-08T12:23:58.741Z,1.38
2022-11-08T12:26:52.515Z,1.00
2022-11-08T12:29:42.267Z,1.25
2022-11-08T12:32:23.473Z,1.38
2022-11-08T12:35:19.855Z,1.10
2022-11-08T12:37:54.738Z,1.15
2022-11-08T12:40:31.435Z,1.40
2022-11-08T12:43:21.911Z,1.42
2022-11-08T12:46:09.529Z,1.27
2022-11-08T12:49:03.212Z,1.20
2022-11-08T12:51:50.436Z,1.15
2022-11-08T12:54:33.106Z,1.40
2022-11-08T12:57:02.814Z,1.48
2022-11-08T12:59:34.436Z,1.17
2022-11-08T13:02:02.181Z,1.35
2022-11-08T13:04:47.272Z,1.52
2022-11-08T13:07:25.104Z,1.45
2022-11-08T13:10:01.006Z,1.30
2022-11-08T13:12:53.857Z,1.70
2022-11-08T13:15:25.204Z,1.58
2022-11-08T13:18:07.325Z,1.23
2022-11-08T13:20:52.280Z,1.83
2022-11-08T13:23:26.841Z,1.50
2022-11-08T13:25:53.663Z,1.88
2022-11-08T13:28:40.923Z,2.83
2022-11-08T13:31:30.527Z,4.75
2022-11-08T13:34:06.595Z,4.28
2022-11-08T13:37:05.605Z,3.60
2022-11-08T13:39:49.757Z,2.63
2022-11-08T13:42:16.412Z,2.60
2022-11-08T13:44:55.404Z,2.13
2022-11-08T13:47:34.539Z,2.80
2022-11-08T13:50:29.510Z,4.18
2022-11-08T13:53:04.048Z,3.95
2022-11-08T13:55:43.011Z,2.45
2022-11-08T13:58:36.798Z,1.98
2022-11-08T14:01:18.698Z,1.70
2022-11-08T14:03:48.430Z,1.63
2022-11-08T14:06:24.025Z,1.80
2022-11-08T14:09:08.971Z,1.98
2022-11-08T14:12:00.534Z,2.22
2022-11-08T14:14:36.482Z,2.10
2022-11-08T14:17:06.244Z,1.90
2022-11-08T14:19:33.496Z,2.47
2022-11-08T14:22:01.938Z,2.10
2022-11-08T14:24:30.529Z,1.63
2022-11-08T14:26:57.299Z,1.67
2022-11-08T14:29:24.824Z,2.13
2022-11-08T14:32:06.767Z,1.55
2022-11-08T14:34:38.357Z,1.73
2022-11-08T14:37:06.315Z,1.70
2022-11-08T14:39:36.537Z,1.85
2022-11-08T14:42:04.755Z,1.73
2022-11-08T14:44:31.542Z,1.50
2022-11-08T14:46:59.285Z,1.63
2022-11-08T14:49:38.289Z,1.70
2022-11-08T14:52:17.537Z,1.70
2022-11-08T14:54:48.765Z,2.63
2022-11-08T14:57:41.422Z,1.83
2022-11-08T15:00:14.567Z,1.90
2022-11-08T15:02:42.602Z,1.80
2022-11-08T15:05:30.639Z,2.33
2022-11-08T15:08:00.990Z,1.88
2022-11-08T15:10:28.096Z,1.88
2022-11-08T15:12:54.845Z,1.60
2022-11-08T15:15:27.284Z,1.85
2022-11-08T15:18:27.200Z,1.70
2022-11-08T15:21:02.183Z,1.85
2022-11-08T15:23:47.791Z,1.50
2022-11-08T15:26:26.328Z,1.60
2022-11-08T15:29:07.205Z,1.70
2022-11-08T15:31:42.123Z,1.60
2022-11-08T15:34:30.271Z,1.85
2022-11-08T15:36:57.449Z,1.70
2022-11-08T15:39:32.124Z,1.88
2022-11-08T15:42:04.118Z,1.63
2022-11-08T15:44:30.902Z,1.77
2022-11-08T15:46:59.104Z,2.10
2022-11-08T15:49:28.024Z,2.03
2022-11-08T15:51:56.537Z,2.10
2022-11-08T15:54:25.425Z,1.75
2022-11-08T15:56:53.507Z,2.13
2022-11-08T15:59:39.072Z,2.00
2022-11-08T16:02:12.013Z,3.00
2022-11-08T16:04:38.977Z,4.07
2022-11-08T16:07:05.891Z,4.78
2022-11-08T16:09:32.683Z,3.13
2022-11-08T16:12:00.963Z,2.88
2022-11-08T16:14:27.775Z,2.47
2022-11-08T16:16:54.600Z,2.47
2022-11-08T16:19:23.734Z,2.47
2022-11-08T16:21:51.165Z,2.92
2022-11-08T16:24:18.301Z,2.40
2022-11-08T16:26:46.152Z,2.22
2022-11-08T16:29:22.104Z,2.92
2022-11-08T16:31:52.539Z,2.17
2022-11-08T16:34:23.152Z,2.38
2022-11-08T16:36:50.287Z,3.45
2022-11-08T16:39:18.892Z,3.00
2022-11-08T16:41:46.071Z,3.38
2022-11-08T16:44:13.158Z,3.50
2022-11-08T16:46:40.468Z,3.33
2022-11-08T16:49:07.723Z,2.90
2022-11-08T16:51:34.498Z,3.00
2022-11-08T16:54:02.895Z,2.92
2022-11-08T16:56:29.777Z,2.63
2022-11-08T16:58:56.567Z,2.55
2022-11-08T17:01:32.606Z,2.30
2022-11-08T17:03:59.313Z,2.60
2022-11-08T17:06:26.067Z,2.50
2022-11-08T17:08:52.803Z,3.13
2022-11-08T17:11:21.413Z,3.42
2022-11-08T17:13:48.533Z,3.47
2022-11-08T17:16:15.623Z,4.00
2022-11-08T17:18:42.617Z,3.67
2022-11-08T17:21:42.537Z,4.00
2022-11-08T17:23:59.900Z,3.90
2022-11-08T17:26:27.154Z,3.67
2022-11-08T17:28:56.897Z,3.58
2022-11-08T17:31:23.593Z,4.03
2022-11-08T17:33:50.272Z,9.88
2022-11-08T17:36:17.011Z,8.98
2022-11-08T17:38:43.827Z,9.63
2022-11-08T17:41:13.162Z,10.05
2022-11-08T17:43:40.215Z,8.70
2022-11-08T17:46:07.394Z,6.93
2022-11-08T17:48:34.867Z,5.18
2022-11-08T17:51:01.738Z,5.22
2022-11-08T17:53:29.073Z,4.63
2022-11-08T17:55:57.347Z,4.47
2022-11-08T17:58:26.015Z,4.20
2022-11-08T18:00:54.524Z,4.53
2022-11-08T18:03:21.762Z,4.10
2022-11-08T18:06:02.595Z,4.70
2022-11-08T18:08:30.620Z,4.25
2022-11-08T18:10:57.540Z,3.95
2022-11-08T18:13:25.529Z,3.75
2022-11-08T18:15:53.308Z,4.18
2022-11-08T18:18:21.690Z,3.90
2022-11-08T18:21:01.618Z,3.38
2022-11-08T18:23:30.149Z,3.42
2022-11-08T18:25:57.841Z,3.78
2022-11-08T18:28:25.570Z,2.88
2022-11-08T18:30:53.274Z,3.80
2022-11-08T18:33:22.967Z,3.42
2022-11-08T18:35:50.304Z,3.38
2022-11-08T18:38:17.660Z,3.47
2022-11-08T18:40:46.049Z,3.42
2022-11-08T18:43:12.968Z,3.80
2022-11-08T18:45:40.121Z,4.15
2022-11-08T18:48:07.258Z,4.10
2022-11-08T18:50:35.470Z,4.50
2022-11-08T18:53:04.077Z,5.10
2022-11-08T18:55:31.736Z,4.93
2022-11-08T18:58:00.558Z,4.30
2022-11-08T19:00:27.334Z,4.82
2022-11-08T19:02:54.237Z,4.60
2022-11-08T19:05:20.932Z,4.25
2022-11-08T19:07:47.693Z,4.60
2022-11-08T19:10:14.495Z,4.03
2022-11-08T19:12:41.200Z,4.50
2022-11-08T19:15:08.643Z,4.43
2022-11-08T19:17:36.463Z,5.10
2022-11-08T19:20:04.036Z,4.40
2022-11-08T19:22:30.903Z,4.97
2022-11-08T19:24:57.611Z,4.35
2022-11-08T19:27:24.441Z,4.35
2022-11-08T19:29:51.113Z,4.60
2022-11-08T19:32:17.964Z,3.85
2022-11-08T19:34:47.127Z,4.22
2022-11-08T19:37:13.868Z,3.95
2022-11-08T19:39:40.657Z,3.22
2022-11-08T19:42:07.367Z,3.40
2022-11-08T19:44:34.060Z,3.60
2022-11-08T19:47:00.795Z,3.53
2022-11-08T19:49:28.795Z,4.22
2022-11-08T19:51:55.547Z,2.95
2022-11-08T19:54:22.275Z,2.88
2022-11-08T19:57:05.893Z,3.00
2022-11-08T19:59:33.061Z,2.95
2022-11-08T20:02:00.114Z,2.50
2022-11-08T20:04:27.072Z,3.08
2022-11-08T20:06:53.938Z,2.83
2022-11-08T20:09:21.903Z,2.67
2022-11-08T20:11:50.263Z,2.40
2022-11-08T20:14:17.065Z,2.42
2022-11-08T20:16:47.843Z,2.90
2022-11-08T20:19:17.992Z,2.35
2022-11-08T20:21:46.411Z,2.83
2022-11-08T20:24:13.644Z,2.90
2022-11-08T20:26:41.541Z,3.78
2022-11-08T20:29:08.676Z,5.00
2022-11-08T20:31:35.900Z,4.85
2022-11-08T20:34:05.988Z,5.10
2022-11-08T20:36:35.254Z,5.82
2022-11-08T20:39:06.841Z,5.55
2022-11-08T20:41:35.789Z,4.65
2022-11-08T20:44:06.064Z,4.85
2022-11-08T20:46:34.266Z,4.85
2022-11-08T20:49:01.670Z,4.65
2022-11-08T20:51:30.061Z,4.50
2022-11-08T20:53:57.689Z,4.63
2022-11-08T20:56:24.684Z,6.10
2022-11-08T20:58:51.946Z,5.20
2022-11-08T21:01:20.564Z,3.70
2022-11-08T21:03:47.577Z,3.58
2022-11-08T21:06:16.586Z,3.10
2022-11-08T21:08:59.086Z,3.17
2022-11-08T21:11:27.699Z,7.25
2022-11-08T21:13:54.405Z,8.00
2022-11-08T21:16:53.174Z,3.25
2022-11-08T21:19:07.739Z,3.83
2022-11-08T21:21:34.557Z,4.35
2022-11-08T21:24:01.130Z,3.95
2022-11-08T21:26:27.831Z,4.20
2022-11-08T21:28:54.503Z,3.72
2022-11-08T21:31:21.173Z,3.90
2022-11-08T21:33:47.755Z,3.78
2022-11-08T21:36:14.419Z,3.03
2022-11-08T21:38:41.133Z,3.33
2022-11-08T21:41:09.195Z,3.63
2022-11-08T21:43:37.776Z,3.25
2022-11-08T21:46:17.154Z,2.90
2022-11-08T21:48:44.001Z,3.20
2022-11-08T21:51:10.639Z,3.20
2022-11-08T21:53:45.146Z,3.92
2022-11-08T21:56:16.189Z,5.30
2022-11-08T21:58:42.922Z,5.28
2022-11-08T22:01:09.740Z,4.85
2022-11-08T22:03:36.552Z,4.00
2022-11-08T22:06:03.283Z,3.95
2022-11-08T22:08:30.020Z,3.47
2022-11-08T22:10:56.646Z,3.53
2022-11-08T22:13:23.209Z,3.47
2022-11-08T22:15:49.823Z,3.85
2022-11-08T22:18:22.772Z,5.63
2022-11-08T22:21:21.684Z,5.90
2022-11-08T22:23:48.266Z,7.82
2022-11-08T22:26:14.838Z,5.60
2022-11-08T22:28:41.390Z,4.80
2022-11-08T22:31:07.984Z,4.63
2022-11-08T22:33:34.543Z,4.45
2022-11-08T22:36:01.201Z,4.10
2022-11-08T22:38:27.840Z,3.47
2022-11-08T22:40:54.453Z,3.53
2022-11-08T22:43:21.022Z,3.20
2022-11-08T22:45:47.599Z,3.78
2022-11-08T22:48:14.180Z,3.78
2022-11-08T22:50:40.802Z,3.47
2022-11-08T22:53:08.260Z,3.38
2022-11-08T22:55:35.094Z,3.80
2022-11-08T22:58:02.053Z,3.33
2022-11-08T23:00:28.809Z,3.45
2022-11-08T23:02:55.623Z,3.08
2022-11-08T23:05:22.208Z,3.85
2022-11-08T23:07:48.821Z,4.07
2022-11-08T23:10:15.573Z,4.18
2022-11-08T23:13:00.508Z,4.13
2022-11-08T23:15:52.876Z,4.32
2022-11-08T23:18:20.453Z,4.63
2022-11-08T23:21:05.247Z,4.78
2022-11-08T23:23:50.387Z,4.22
2022-11-08T23:26:38.122Z,4.30
2022-11-08T23:29:42.946Z,4.47
2022-11-08T23:32:09.534Z,4.95
2022-11-08T23:34:36.075Z,4.22
2022-11-08T23:37:02.645Z,4.30
2022-11-08T23:39:29.667Z,5.38
2022-11-08T23:42:14.540Z,4.70
2022-11-08T23:44:41.076Z,4.75
2022-11-08T23:47:07.716Z,4.40
2022-11-08T23:49:34.269Z,4.63
2022-11-08T23:52:00.836Z,4.65
2022-11-08T23:54:27.513Z,4.85
2022-11-08T23:56:54.098Z,5.07
2022-11-08T23:59:20.639Z,5.20
